Etusivu
METAR-TAF:

METAR-TAF

Lentoasemat :

Piggs Peak, Swazimaa

Leveyspiiri: 25-58-04S, Pituuspiiri: 31-15-03E, korkeus merenpinnasta: 1099 m

Tämänhetkinen sää

Tämä raportti tehtiin 29 minuuttia sitten, kello 17.00 UTC
tyyntä
Lämpötila 6°C
Kosteus 93%
Ilmanpaine 1027 hPa

METAR: FDPP 051700Z AUTO 00000KT //// // ////// 06/05 Q1027

Aika: 19:29 (17:29 UTC)


TAF: puuttuu

Säähavainnot ja -ennusteet yli 4000 lentoasemalta (METAR- ja TAF-raportit).

Käytössä olevat sääasemat on merkitty karttaan keltaisilla ja punaisilla pisteillä.

Aseta hiiri pisteen päälle nähdäksesi sääaseman nimen.

Klikkaa sitten nähdäksesi säähavainnot ja -ennusteet.

Kartan vaihtaminen: klikkaa mustalla rastilla varustettuja vihreitä pisteitä, niin voit zoomata sisään; viivalla varustettua vihreää pistettä, niin voit zoomata ulos tai vihreitä nuolia, niin pääset viereisille kartoille.


METAR-TAF: